Cottonwood, Alabama
Current Conditions -  °F | °C
As of 4:53 AM on Sunday 21 Dec 2014 (Local Time) from KMAI Reporting Station
Light Rain Light Rain  
Wind Chill: 53°   Ceiling: 1700
Heat Index: 53°   Visibility: 9mi
Dew Point: 53°   Wind: 10mph
Humidity: 100%   Direction: 60°ENE
Pressure: 30.1"   Gusts: NA
Location:  31.05°N, 85.3°W
Report Text: KMAI 211053Z AUTO 06009KT 9SM -RA SCT008 BKN017 OVC030 12/12 A3010 RMK AO2 RAB27E37B48 SLP191 P0000 T01170117 $
Loading
Personal Weather Stations






























Interactive Weather Map New forecast layout! Learn more

10-Day Weather Forecast

Advertisements
Track Severe Weather on mobile